Heythuysen, Netherlands
Current Conditions -  °F | °C
As of 12:25 PM on Friday 24 Oct 2014 (Local Time) from EBBL Reporting Station
Light Rain Light Rain  
Wind Chill: 52°   Ceiling: 4500
Heat Index: 52°   Visibility: 6mi
Dew Point: 46°   Wind: 6mph
Humidity: 82%   Direction: 200°SSW
Pressure: 30.12"   Gusts: NA
Location:  51.25°N, 5.9°E
Report Text: EBBL 241025Z 20005KT 9999 -RA SCT035 BKN045 11/08 Q1020 BLU BLU
Loading
Personal Weather Stations






























Interactive Weather Map
Tropical Storm Tracking
New forecast layout! Learn more

10-Day Weather Forecast

Advertisements
Track Severe Weather on mobile